sensor_id;sensor_type;location;lat;lon;timestamp;P1;durP1;ratioP1;P2;durP2;ratioP2
703;SDS011;335;48.694;9.120;2023-12-20T00:01:45;0.97;;;0.70;;
703;SDS011;335;48.694;9.120;2023-12-20T00:04:10;0.90;;;0.90;;
703;SDS011;335;48.694;9.120;2023-12-20T00:06:36;0.83;;;0.83;;
703;SDS011;335;48.694;9.120;2023-12-20T00:09:01;1.37;;;0.87;;
703;SDS011;335;48.694;9.120;2023-12-20T00:11:26;0.73;;;0.73;;
703;SDS011;335;48.694;9.120;2023-12-20T00:13:53;0.70;;;0.70;;
703;SDS011;335;48.694;9.120;2023-12-20T00:16:18;0.70;;;0.70;;
703;SDS011;335;48.694;9.120;2023-12-20T00:18:44;2.40;;;0.70;;
703;SDS011;335;48.694;9.120;2023-12-20T00:21:09;0.73;;;0.73;;
703;SDS011;335;48.694;9.120;2023-12-20T00:23:34;0.60;;;0.60;;
703;SDS011;335;48.694;9.120;2023-12-20T00:26:00;0.57;;;0.57;;
703;SDS011;335;48.694;9.120;2023-12-20T00:28:25;0.63;;;0.63;;
703;SDS011;335;48.694;9.120;2023-12-20T00:30:50;0.50;;;0.50;;
703;SDS011;335;48.694;9.120;2023-12-20T00:33:16;0.80;;;0.80;;
703;SDS011;335;48.694;9.120;2023-12-20T00:35:41;0.67;;;0.60;;
703;SDS011;335;48.694;9.120;2023-12-20T00:38:06;0.97;;;0.97;;
703;SDS011;335;48.694;9.120;2023-12-20T00:40:33;0.40;;;0.40;;
703;SDS011;335;48.694;9.120;2023-12-20T00:42:59;0.50;;;0.50;;
703;SDS011;335;48.694;9.120;2023-12-20T00:45:24;0.50;;;0.50;;
703;SDS011;335;48.694;9.120;2023-12-20T00:47:49;2.40;;;0.70;;
703;SDS011;335;48.694;9.120;2023-12-20T00:50:15;0.50;;;0.50;;
703;SDS011;335;48.694;9.120;2023-12-20T00:52:41;0.60;;;0.60;;
703;SDS011;335;48.694;9.120;2023-12-20T00:55:06;0.60;;;0.60;;
703;SDS011;335;48.694;9.120;2023-12-20T00:57:32;0.47;;;0.47;;
703;SDS011;335;48.694;9.120;2023-12-20T00:59:58;0.50;;;0.50;;
703;SDS011;335;48.694;9.120;2023-12-20T01:02:23;0.70;;;0.70;;
703;SDS011;335;48.694;9.120;2023-12-20T01:04:48;0.70;;;0.70;;
703;SDS011;335;48.694;9.120;2023-12-20T01:07:14;0.40;;;0.40;;
703;SDS011;335;48.694;9.120;2023-12-20T01:09:39;0.60;;;0.60;;
703;SDS011;335;48.694;9.120;2023-12-20T01:12:04;1.27;;;1.17;;
703;SDS011;335;48.694;9.120;2023-12-20T01:14:30;0.97;;;0.97;;
703;SDS011;335;48.694;9.120;2023-12-20T01:16:55;0.57;;;0.57;;
703;SDS011;335;48.694;9.120;2023-12-20T01:19:21;0.63;;;0.63;;
703;SDS011;335;48.694;9.120;2023-12-20T01:21:46;0.87;;;0.87;;
703;SDS011;335;48.694;9.120;2023-12-20T01:24:12;0.70;;;0.63;;
703;SDS011;335;48.694;9.120;2023-12-20T01:26:37;0.73;;;0.73;;
703;SDS011;335;48.694;9.120;2023-12-20T01:29:02;0.87;;;0.87;;
703;SDS011;335;48.694;9.120;2023-12-20T01:31:28;0.70;;;0.70;;
703;SDS011;335;48.694;9.120;2023-12-20T01:33:53;1.27;;;1.17;;
703;SDS011;335;48.694;9.120;2023-12-20T01:36:18;1.23;;;0.80;;
703;SDS011;335;48.694;9.120;2023-12-20T01:38:44;2.40;;;0.83;;
703;SDS011;335;48.694;9.120;2023-12-20T01:41:10;1.00;;;1.00;;
703;SDS011;335;48.694;9.120;2023-12-20T01:43:35;1.07;;;1.00;;
703;SDS011;335;48.694;9.120;2023-12-20T01:46:00;0.80;;;0.80;;
703;SDS011;335;48.694;9.120;2023-12-20T01:48:26;1.47;;;1.10;;
703;SDS011;335;48.694;9.120;2023-12-20T01:50:52;0.90;;;0.90;;
703;SDS011;335;48.694;9.120;2023-12-20T01:53:19;0.70;;;0.70;;
703;SDS011;335;48.694;9.120;2023-12-20T01:55:45;0.75;;;0.75;;
703;SDS011;335;48.694;9.120;2023-12-20T01:58:12;0.65;;;0.65;;
703;SDS011;335;48.694;9.120;2023-12-20T02:00:39;1.10;;;0.85;;
703;SDS011;335;48.694;9.120;2023-12-20T02:03:04;0.63;;;0.63;;
703;SDS011;335;48.694;9.120;2023-12-20T02:05:30;1.20;;;1.20;;
703;SDS011;335;48.694;9.120;2023-12-20T02:07:56;0.70;;;0.70;;
703;SDS011;335;48.694;9.120;2023-12-20T02:10:21;0.90;;;0.90;;
703;SDS011;335;48.694;9.120;2023-12-20T02:12:47;0.70;;;0.70;;
703;SDS011;335;48.694;9.120;2023-12-20T02:15:13;0.90;;;0.90;;
703;SDS011;335;48.694;9.120;2023-12-20T02:17:38;0.83;;;0.83;;
703;SDS011;335;48.694;9.120;2023-12-20T02:20:05;0.70;;;0.70;;
703;SDS011;335;48.694;9.120;2023-12-20T02:25:52;0.70;;;0.50;;
703;SDS011;335;48.694;9.120;2023-12-20T02:28:17;0.70;;;0.70;;
703;SDS011;335;48.694;9.120;2023-12-20T02:30:43;0.70;;;0.70;;
703;SDS011;335;48.694;9.120;2023-12-20T02:33:10;0.70;;;0.70;;
703;SDS011;335;48.694;9.120;2023-12-20T02:35:36;0.60;;;0.57;;
703;SDS011;335;48.694;9.120;2023-12-20T02:38:02;0.87;;;0.63;;
703;SDS011;335;48.694;9.120;2023-12-20T02:40:27;0.57;;;0.53;;
703;SDS011;335;48.694;9.120;2023-12-20T02:42:52;0.50;;;0.43;;
703;SDS011;335;48.694;9.120;2023-12-20T02:45:33;0.60;;;0.60;;
703;SDS011;335;48.694;9.120;2023-12-20T02:47:58;0.55;;;0.55;;
703;SDS011;335;48.694;9.120;2023-12-20T02:50:24;0.93;;;0.50;;
703;SDS011;335;48.694;9.120;2023-12-20T02:55:58;0.50;;;0.33;;
703;SDS011;335;48.694;9.120;2023-12-20T02:58:23;0.90;;;0.60;;
703;SDS011;335;48.694;9.120;2023-12-20T03:00:49;1.70;;;0.40;;
703;SDS011;335;48.694;9.120;2023-12-20T03:03:14;0.63;;;0.63;;
703;SDS011;335;48.694;9.120;2023-12-20T03:05:39;0.40;;;0.40;;
703;SDS011;335;48.694;9.120;2023-12-20T03:08:05;0.50;;;0.50;;
703;SDS011;335;48.694;9.120;2023-12-20T03:10:30;0.30;;;0.30;;
703;SDS011;335;48.694;9.120;2023-12-20T03:12:55;0.30;;;0.30;;
703;SDS011;335;48.694;9.120;2023-12-20T03:15:21;0.50;;;0.50;;
703;SDS011;335;48.694;9.120;2023-12-20T03:17:46;0.70;;;0.70;;
703;SDS011;335;48.694;9.120;2023-12-20T03:20:11;0.37;;;0.37;;
703;SDS011;335;48.694;9.120;2023-12-20T03:22:37;0.30;;;0.30;;
703;SDS011;335;48.694;9.120;2023-12-20T03:25:02;0.50;;;0.30;;
703;SDS011;335;48.694;9.120;2023-12-20T03:27:28;0.30;;;0.20;;
703;SDS011;335;48.694;9.120;2023-12-20T03:29:53;0.40;;;0.40;;
703;SDS011;335;48.694;9.120;2023-12-20T03:32:18;1.03;;;0.30;;
703;SDS011;335;48.694;9.120;2023-12-20T03:34:44;0.20;;;0.10;;
703;SDS011;335;48.694;9.120;2023-12-20T03:37:09;0.50;;;0.30;;
703;SDS011;335;48.694;9.120;2023-12-20T03:39:34;0.30;;;0.30;;
703;SDS011;335;48.694;9.120;2023-12-20T03:42:00;0.30;;;0.30;;
703;SDS011;335;48.694;9.120;2023-12-20T03:44:25;0.43;;;0.43;;
703;SDS011;335;48.694;9.120;2023-12-20T03:46:50;0.30;;;0.20;;
703;SDS011;335;48.694;9.120;2023-12-20T03:49:16;0.40;;;0.40;;
703;SDS011;335;48.694;9.120;2023-12-20T03:51:41;0.40;;;0.30;;
703;SDS011;335;48.694;9.120;2023-12-20T03:54:07;0.30;;;0.30;;
703;SDS011;335;48.694;9.120;2023-12-20T03:56:33;0.40;;;0.20;;
703;SDS011;335;48.694;9.120;2023-12-20T03:58:58;0.40;;;0.30;;
703;SDS011;335;48.694;9.120;2023-12-20T04:01:23;0.30;;;0.20;;
703;SDS011;335;48.694;9.120;2023-12-20T04:03:49;0.30;;;0.20;;
703;SDS011;335;48.694;9.120;2023-12-20T04:06:17;0.53;;;0.20;;
703;SDS011;335;48.694;9.120;2023-12-20T04:08:43;0.30;;;0.20;;
703;SDS011;335;48.694;9.120;2023-12-20T04:11:08;1.40;;;0.20;;
703;SDS011;335;48.694;9.120;2023-12-20T04:13:33;0.30;;;0.30;;
703;SDS011;335;48.694;9.120;2023-12-20T04:15:59;0.30;;;0.20;;
703;SDS011;335;48.694;9.120;2023-12-20T04:18:24;0.40;;;0.20;;
703;SDS011;335;48.694;9.120;2023-12-20T04:20:49;0.30;;;0.27;;
703;SDS011;335;48.694;9.120;2023-12-20T04:23:16;0.30;;;0.20;;
703;SDS011;335;48.694;9.120;2023-12-20T04:25:42;0.33;;;0.20;;
703;SDS011;335;48.694;9.120;2023-12-20T04:28:07;0.40;;;0.40;;
703;SDS011;335;48.694;9.120;2023-12-20T04:30:32;0.30;;;0.20;;
703;SDS011;335;48.694;9.120;2023-12-20T04:32:58;0.30;;;0.20;;
703;SDS011;335;48.694;9.120;2023-12-20T04:35:23;0.30;;;0.10;;
703;SDS011;335;48.694;9.120;2023-12-20T04:37:48;0.30;;;0.10;;
703;SDS011;335;48.694;9.120;2023-12-20T04:40:14;0.30;;;0.20;;
703;SDS011;335;48.694;9.120;2023-12-20T04:42:40;0.30;;;0.10;;
703;SDS011;335;48.694;9.120;2023-12-20T04:45:05;0.30;;;0.20;;
703;SDS011;335;48.694;9.120;2023-12-20T04:47:31;0.20;;;0.10;;
703;SDS011;335;48.694;9.120;2023-12-20T04:49:56;1.80;;;0.20;;
703;SDS011;335;48.694;9.120;2023-12-20T04:52:21;0.30;;;0.10;;
703;SDS011;335;48.694;9.120;2023-12-20T04:54:47;0.30;;;0.20;;
703;SDS011;335;48.694;9.120;2023-12-20T04:57:12;1.03;;;0.10;;
703;SDS011;335;48.694;9.120;2023-12-20T04:59:37;0.30;;;0.20;;
703;SDS011;335;48.694;9.120;2023-12-20T05:02:03;0.30;;;0.20;;
703;SDS011;335;48.694;9.120;2023-12-20T05:04:28;0.30;;;0.20;;
703;SDS011;335;48.694;9.120;2023-12-20T05:06:54;0.30;;;0.20;;
703;SDS011;335;48.694;9.120;2023-12-20T05:09:19;0.27;;;0.20;;
703;SDS011;335;48.694;9.120;2023-12-20T05:11:44;0.30;;;0.20;;
703;SDS011;335;48.694;9.120;2023-12-20T05:14:10;0.30;;;0.10;;
703;SDS011;335;48.694;9.120;2023-12-20T05:16:35;0.73;;;0.20;;
703;SDS011;335;48.694;9.120;2023-12-20T05:19:00;0.40;;;0.20;;
703;SDS011;335;48.694;9.120;2023-12-20T05:21:31;0.30;;;0.20;;
703;SDS011;335;48.694;9.120;2023-12-20T05:23:56;0.30;;;0.10;;
703;SDS011;335;48.694;9.120;2023-12-20T05:26:22;0.30;;;0.10;;
703;SDS011;335;48.694;9.120;2023-12-20T05:28:47;0.30;;;0.20;;
703;SDS011;335;48.694;9.120;2023-12-20T05:31:12;0.50;;;0.20;;
703;SDS011;335;48.694;9.120;2023-12-20T05:33:38;0.30;;;0.20;;
703;SDS011;335;48.694;9.120;2023-12-20T05:36:03;0.70;;;0.20;;
703;SDS011;335;48.694;9.120;2023-12-20T05:38:29;0.30;;;0.10;;
703;SDS011;335;48.694;9.120;2023-12-20T05:40:54;0.20;;;0.10;;
703;SDS011;335;48.694;9.120;2023-12-20T05:43:19;0.83;;;0.20;;
703;SDS011;335;48.694;9.120;2023-12-20T05:45:45;0.30;;;0.20;;
703;SDS011;335;48.694;9.120;2023-12-20T05:48:10;0.40;;;0.20;;
703;SDS011;335;48.694;9.120;2023-12-20T05:50:35;0.40;;;0.20;;
703;SDS011;335;48.694;9.120;2023-12-20T05:53:01;0.50;;;0.40;;
703;SDS011;335;48.694;9.120;2023-12-20T05:55:27;0.77;;;0.30;;
703;SDS011;335;48.694;9.120;2023-12-20T05:57:52;0.30;;;0.20;;
703;SDS011;335;48.694;9.120;2023-12-20T06:00:17;0.30;;;0.30;;
703;SDS011;335;48.694;9.120;2023-12-20T06:02:43;0.30;;;0.20;;
703;SDS011;335;48.694;9.120;2023-12-20T06:05:09;0.30;;;0.20;;
703;SDS011;335;48.694;9.120;2023-12-20T06:07:34;0.50;;;0.33;;
703;SDS011;335;48.694;9.120;2023-12-20T06:09:59;0.30;;;0.30;;
703;SDS011;335;48.694;9.120;2023-12-20T06:12:25;0.40;;;0.27;;
703;SDS011;335;48.694;9.120;2023-12-20T06:14:52;0.30;;;0.20;;
703;SDS011;335;48.694;9.120;2023-12-20T06:17:17;1.03;;;0.20;;
703;SDS011;335;48.694;9.120;2023-12-20T06:19:43;2.30;;;0.40;;
703;SDS011;335;48.694;9.120;2023-12-20T06:22:09;0.40;;;0.40;;
703;SDS011;335;48.694;9.120;2023-12-20T06:24:35;0.30;;;0.20;;
703;SDS011;335;48.694;9.120;2023-12-20T06:27:01;0.30;;;0.20;;
703;SDS011;335;48.694;9.120;2023-12-20T06:29:26;0.30;;;0.20;;
703;SDS011;335;48.694;9.120;2023-12-20T06:31:51;0.30;;;0.20;;
703;SDS011;335;48.694;9.120;2023-12-20T06:34:17;0.37;;;0.37;;
703;SDS011;335;48.694;9.120;2023-12-20T06:36:42;0.30;;;0.30;;
703;SDS011;335;48.694;9.120;2023-12-20T06:39:08;0.30;;;0.30;;
703;SDS011;335;48.694;9.120;2023-12-20T06:41:33;2.80;;;0.70;;
703;SDS011;335;48.694;9.120;2023-12-20T06:43:59;0.37;;;0.30;;
703;SDS011;335;48.694;9.120;2023-12-20T06:46:24;0.30;;;0.20;;
703;SDS011;335;48.694;9.120;2023-12-20T06:48:50;0.30;;;0.30;;
703;SDS011;335;48.694;9.120;2023-12-20T06:51:16;0.30;;;0.23;;
703;SDS011;335;48.694;9.120;2023-12-20T06:53:41;0.55;;;0.30;;
703;SDS011;335;48.694;9.120;2023-12-20T06:56:07;0.47;;;0.40;;
703;SDS011;335;48.694;9.120;2023-12-20T06:58:32;0.73;;;0.60;;
703;SDS011;335;48.694;9.120;2023-12-20T07:00:58;0.73;;;0.73;;
703;SDS011;335;48.694;9.120;2023-12-20T07:03:23;1.63;;;1.00;;
703;SDS011;335;48.694;9.120;2023-12-20T07:05:48;0.80;;;0.80;;
703;SDS011;335;48.694;9.120;2023-12-20T07:08:14;1.20;;;1.20;;
703;SDS011;335;48.694;9.120;2023-12-20T07:10:40;0.90;;;0.90;;
703;SDS011;335;48.694;9.120;2023-12-20T07:13:06;0.93;;;0.88;;
703;SDS011;335;48.694;9.120;2023-12-20T07:15:32;0.70;;;0.70;;
703;SDS011;335;48.694;9.120;2023-12-20T07:17:57;0.90;;;0.70;;
703;SDS011;335;48.694;9.120;2023-12-20T07:20:25;1.45;;;0.60;;
703;SDS011;335;48.694;9.120;2023-12-20T07:22:50;0.67;;;0.67;;
703;SDS011;335;48.694;9.120;2023-12-20T07:25:16;1.00;;;1.00;;
703;SDS011;335;48.694;9.120;2023-12-20T07:27:41;0.83;;;0.83;;
703;SDS011;335;48.694;9.120;2023-12-20T07:30:06;1.60;;;1.50;;
703;SDS011;335;48.694;9.120;2023-12-20T07:32:32;0.53;;;0.53;;
703;SDS011;335;48.694;9.120;2023-12-20T07:34:57;0.80;;;0.70;;
703;SDS011;335;48.694;9.120;2023-12-20T07:37:23;0.70;;;0.70;;
703;SDS011;335;48.694;9.120;2023-12-20T07:39:48;1.10;;;1.00;;
703;SDS011;335;48.694;9.120;2023-12-20T07:42:14;0.60;;;0.60;;
703;SDS011;335;48.694;9.120;2023-12-20T07:44:39;0.60;;;0.60;;
703;SDS011;335;48.694;9.120;2023-12-20T07:47:04;0.90;;;0.90;;
703;SDS011;335;48.694;9.120;2023-12-20T07:49:30;0.87;;;0.87;;
703;SDS011;335;48.694;9.120;2023-12-20T07:51:56;0.70;;;0.70;;
703;SDS011;335;48.694;9.120;2023-12-20T07:54:22;1.50;;;1.40;;
703;SDS011;335;48.694;9.120;2023-12-20T07:56:48;3.90;;;2.07;;
703;SDS011;335;48.694;9.120;2023-12-20T07:59:13;2.20;;;2.10;;
703;SDS011;335;48.694;9.120;2023-12-20T08:01:39;2.03;;;1.93;;
703;SDS011;335;48.694;9.120;2023-12-20T08:04:04;2.77;;;2.67;;
703;SDS011;335;48.694;9.120;2023-12-20T08:06:30;2.30;;;2.20;;
703;SDS011;335;48.694;9.120;2023-12-20T08:08:55;2.43;;;2.23;;
703;SDS011;335;48.694;9.120;2023-12-20T08:11:20;2.30;;;2.20;;
703;SDS011;335;48.694;9.120;2023-12-20T08:13:46;2.87;;;2.67;;
703;SDS011;335;48.694;9.120;2023-12-20T08:16:11;2.87;;;2.67;;
703;SDS011;335;48.694;9.120;2023-12-20T08:18:38;2.97;;;2.77;;
703;SDS011;335;48.694;9.120;2023-12-20T08:21:04;4.10;;;3.13;;
703;SDS011;335;48.694;9.120;2023-12-20T08:23:32;2.43;;;2.23;;
703;SDS011;335;48.694;9.120;2023-12-20T08:25:57;3.23;;;3.07;;
703;SDS011;335;48.694;9.120;2023-12-20T08:28:23;3.63;;;3.40;;
703;SDS011;335;48.694;9.120;2023-12-20T08:30:48;3.00;;;2.80;;
703;SDS011;335;48.694;9.120;2023-12-20T08:33:15;3.67;;;3.47;;
703;SDS011;335;48.694;9.120;2023-12-20T08:35:40;3.10;;;2.97;;
703;SDS011;335;48.694;9.120;2023-12-20T08:38:05;3.20;;;3.00;;
703;SDS011;335;48.694;9.120;2023-12-20T08:40:31;3.53;;;3.23;;
703;SDS011;335;48.694;9.120;2023-12-20T08:42:56;3.90;;;3.60;;
703;SDS011;335;48.694;9.120;2023-12-20T08:45:21;4.37;;;4.00;;
703;SDS011;335;48.694;9.120;2023-12-20T08:47:48;3.10;;;3.00;;
703;SDS011;335;48.694;9.120;2023-12-20T08:50:13;3.83;;;3.53;;
703;SDS011;335;48.694;9.120;2023-12-20T08:52:41;3.65;;;3.45;;
703;SDS011;335;48.694;9.120;2023-12-20T08:55:07;3.28;;;3.08;;
703;SDS011;335;48.694;9.120;2023-12-20T08:57:32;4.27;;;3.90;;
703;SDS011;335;48.694;9.120;2023-12-20T08:59:58;3.43;;;3.23;;
703;SDS011;335;48.694;9.120;2023-12-20T09:02:24;2.70;;;2.60;;
703;SDS011;335;48.694;9.120;2023-12-20T09:04:49;3.27;;;3.07;;
703;SDS011;335;48.694;9.120;2023-12-20T09:07:21;2.50;;;2.37;;
703;SDS011;335;48.694;9.120;2023-12-20T09:09:50;2.72;;;2.53;;
703;SDS011;335;48.694;9.120;2023-12-20T09:12:16;3.30;;;3.20;;
703;SDS011;335;48.694;9.120;2023-12-20T09:14:45;4.07;;;3.17;;
703;SDS011;335;48.694;9.120;2023-12-20T09:17:15;4.32;;;2.10;;
703;SDS011;335;48.694;9.120;2023-12-20T09:19:41;1.30;;;1.30;;
703;SDS011;335;48.694;9.120;2023-12-20T09:22:08;1.90;;;1.80;;
703;SDS011;335;48.694;9.120;2023-12-20T09:24:34;2.60;;;1.13;;
703;SDS011;335;48.694;9.120;2023-12-20T09:26:59;2.20;;;1.00;;
703;SDS011;335;48.694;9.120;2023-12-20T09:29:25;1.00;;;1.00;;
703;SDS011;335;48.694;9.120;2023-12-20T09:31:50;1.53;;;1.00;;
703;SDS011;335;48.694;9.120;2023-12-20T09:34:16;1.43;;;1.30;;
703;SDS011;335;48.694;9.120;2023-12-20T09:36:42;0.93;;;0.93;;
703;SDS011;335;48.694;9.120;2023-12-20T09:39:12;1.00;;;0.90;;
703;SDS011;335;48.694;9.120;2023-12-20T09:41:38;3.07;;;1.20;;
703;SDS011;335;48.694;9.120;2023-12-20T09:44:08;2.43;;;1.20;;
703;SDS011;335;48.694;9.120;2023-12-20T09:46:33;1.53;;;1.00;;
703;SDS011;335;48.694;9.120;2023-12-20T09:49:00;1.27;;;0.73;;
703;SDS011;335;48.694;9.120;2023-12-20T09:51:26;0.80;;;0.80;;
703;SDS011;335;48.694;9.120;2023-12-20T09:53:53;0.90;;;0.90;;
703;SDS011;335;48.694;9.120;2023-12-20T09:56:19;1.53;;;1.40;;
703;SDS011;335;48.694;9.120;2023-12-20T09:58:45;0.90;;;0.90;;
703;SDS011;335;48.694;9.120;2023-12-20T10:01:10;2.20;;;0.80;;
703;SDS011;335;48.694;9.120;2023-12-20T10:03:36;1.67;;;0.80;;
703;SDS011;335;48.694;9.120;2023-12-20T10:06:03;1.47;;;1.00;;
703;SDS011;335;48.694;9.120;2023-12-20T10:08:29;1.80;;;1.13;;
703;SDS011;335;48.694;9.120;2023-12-20T10:10:56;3.20;;;1.17;;
703;SDS011;335;48.694;9.120;2023-12-20T10:13:27;1.63;;;1.10;;
703;SDS011;335;48.694;9.120;2023-12-20T10:15:52;1.50;;;0.90;;
703;SDS011;335;48.694;9.120;2023-12-20T10:18:17;1.00;;;0.90;;
703;SDS011;335;48.694;9.120;2023-12-20T10:20:43;2.77;;;1.30;;
703;SDS011;335;48.694;9.120;2023-12-20T10:23:09;1.73;;;0.70;;
703;SDS011;335;48.694;9.120;2023-12-20T10:25:35;2.50;;;1.40;;
703;SDS011;335;48.694;9.120;2023-12-20T10:30:35;2.00;;;1.33;;
703;SDS011;335;48.694;9.120;2023-12-20T10:33:01;2.83;;;1.30;;
703;SDS011;335;48.694;9.120;2023-12-20T10:35:26;1.40;;;0.93;;
703;SDS011;335;48.694;9.120;2023-12-20T10:37:52;1.90;;;1.80;;
703;SDS011;335;48.694;9.120;2023-12-20T10:40:21;2.20;;;0.77;;
703;SDS011;335;48.694;9.120;2023-12-20T10:42:47;2.37;;;1.10;;
703;SDS011;335;48.694;9.120;2023-12-20T10:45:12;1.33;;;1.23;;
703;SDS011;335;48.694;9.120;2023-12-20T10:47:37;1.37;;;1.07;;
703;SDS011;335;48.694;9.120;2023-12-20T10:50:05;3.13;;;1.57;;
703;SDS011;335;48.694;9.120;2023-12-20T10:52:31;1.23;;;0.93;;
703;SDS011;335;48.694;9.120;2023-12-20T10:54:57;1.13;;;1.00;;
703;SDS011;335;48.694;9.120;2023-12-20T10:57:23;2.40;;;1.27;;
703;SDS011;335;48.694;9.120;2023-12-20T10:59:50;0.87;;;0.87;;
703;SDS011;335;48.694;9.120;2023-12-20T11:02:18;3.63;;;1.20;;
703;SDS011;335;48.694;9.120;2023-12-20T11:04:54;3.33;;;1.13;;
703;SDS011;335;48.694;9.120;2023-12-20T11:07:32;7.13;;;1.37;;
703;SDS011;335;48.694;9.120;2023-12-20T11:10:03;2.50;;;1.20;;
703;SDS011;335;48.694;9.120;2023-12-20T11:15:26;2.10;;;0.97;;
703;SDS011;335;48.694;9.120;2023-12-20T11:17:56;2.97;;;1.50;;
703;SDS011;335;48.694;9.120;2023-12-20T11:20:23;4.63;;;1.43;;
703;SDS011;335;48.694;9.120;2023-12-20T11:22:52;2.10;;;1.33;;
703;SDS011;335;48.694;9.120;2023-12-20T11:25:18;1.13;;;0.80;;
703;SDS011;335;48.694;9.120;2023-12-20T11:27:44;3.27;;;1.00;;
703;SDS011;335;48.694;9.120;2023-12-20T11:30:10;1.67;;;1.00;;
703;SDS011;335;48.694;9.120;2023-12-20T11:32:36;1.20;;;1.10;;
703;SDS011;335;48.694;9.120;2023-12-20T11:37:37;2.20;;;0.97;;
703;SDS011;335;48.694;9.120;2023-12-20T11:42:33;2.17;;;1.03;;
703;SDS011;335;48.694;9.120;2023-12-20T11:45:02;3.50;;;1.40;;
703;SDS011;335;48.694;9.120;2023-12-20T11:47:28;4.40;;;1.10;;
703;SDS011;335;48.694;9.120;2023-12-20T11:49:54;1.70;;;0.80;;
703;SDS011;335;48.694;9.120;2023-12-20T11:52:21;4.13;;;1.00;;
703;SDS011;335;48.694;9.120;2023-12-20T11:54:46;1.77;;;0.80;;
703;SDS011;335;48.694;9.120;2023-12-20T11:57:12;1.47;;;1.37;;
703;SDS011;335;48.694;9.120;2023-12-20T11:59:38;1.80;;;1.13;;
703;SDS011;335;48.694;9.120;2023-12-20T12:02:03;1.40;;;1.00;;
703;SDS011;335;48.694;9.120;2023-12-20T12:04:29;2.70;;;1.07;;
703;SDS011;335;48.694;9.120;2023-12-20T12:06:54;3.20;;;1.67;;
703;SDS011;335;48.694;9.120;2023-12-20T12:09:19;3.43;;;1.40;;
703;SDS011;335;48.694;9.120;2023-12-20T12:11:45;3.27;;;1.50;;
703;SDS011;335;48.694;9.120;2023-12-20T12:14:10;3.40;;;1.20;;
703;SDS011;335;48.694;9.120;2023-12-20T12:16:36;1.93;;;1.40;;
703;SDS011;335;48.694;9.120;2023-12-20T12:19:01;3.83;;;1.43;;
703;SDS011;335;48.694;9.120;2023-12-20T12:21:26;2.63;;;1.60;;
703;SDS011;335;48.694;9.120;2023-12-20T12:23:52;2.53;;;1.20;;
703;SDS011;335;48.694;9.120;2023-12-20T12:26:18;1.63;;;1.53;;
703;SDS011;335;48.694;9.120;2023-12-20T12:28:43;3.37;;;2.23;;
703;SDS011;335;48.694;9.120;2023-12-20T12:31:12;1.30;;;1.30;;
703;SDS011;335;48.694;9.120;2023-12-20T12:33:40;2.28;;;1.05;;
703;SDS011;335;48.694;9.120;2023-12-20T12:36:06;2.33;;;2.00;;
703;SDS011;335;48.694;9.120;2023-12-20T12:38:32;2.70;;;1.30;;
703;SDS011;335;48.694;9.120;2023-12-20T12:40:59;1.50;;;1.30;;
703;SDS011;335;48.694;9.120;2023-12-20T12:43:25;1.65;;;1.20;;
703;SDS011;335;48.694;9.120;2023-12-20T12:45:50;1.37;;;1.20;;
703;SDS011;335;48.694;9.120;2023-12-20T12:48:15;4.07;;;1.40;;
703;SDS011;335;48.694;9.120;2023-12-20T12:50:41;2.47;;;1.40;;
703;SDS011;335;48.694;9.120;2023-12-20T12:53:06;4.83;;;1.77;;
703;SDS011;335;48.694;9.120;2023-12-20T12:55:32;1.63;;;1.03;;
703;SDS011;335;48.694;9.120;2023-12-20T12:57:58;3.03;;;1.20;;
703;SDS011;335;48.694;9.120;2023-12-20T13:00:23;2.13;;;1.20;;
703;SDS011;335;48.694;9.120;2023-12-20T13:02:49;1.00;;;0.90;;
703;SDS011;335;48.694;9.120;2023-12-20T13:05:14;3.10;;;0.97;;
703;SDS011;335;48.694;9.120;2023-12-20T13:07:40;3.40;;;1.27;;
703;SDS011;335;48.694;9.120;2023-12-20T13:10:05;4.30;;;1.40;;
703;SDS011;335;48.694;9.120;2023-12-20T13:12:31;1.97;;;1.43;;
703;SDS011;335;48.694;9.120;2023-12-20T13:14:57;2.10;;;1.20;;
703;SDS011;335;48.694;9.120;2023-12-20T13:17:22;1.63;;;1.00;;
703;SDS011;335;48.694;9.120;2023-12-20T13:19:48;1.60;;;0.97;;
703;SDS011;335;48.694;9.120;2023-12-20T13:22:15;2.80;;;1.27;;
703;SDS011;335;48.694;9.120;2023-12-20T13:24:41;2.90;;;1.40;;
703;SDS011;335;48.694;9.120;2023-12-20T13:27:08;5.53;;;1.40;;
703;SDS011;335;48.694;9.120;2023-12-20T13:29:34;6.33;;;1.30;;
703;SDS011;335;48.694;9.120;2023-12-20T13:31:59;1.00;;;0.90;;
703;SDS011;335;48.694;9.120;2023-12-20T13:34:24;1.50;;;1.33;;
703;SDS011;335;48.694;9.120;2023-12-20T13:36:50;4.03;;;1.27;;
703;SDS011;335;48.694;9.120;2023-12-20T13:39:16;1.00;;;1.00;;
703;SDS011;335;48.694;9.120;2023-12-20T13:41:41;1.70;;;1.37;;
703;SDS011;335;48.694;9.120;2023-12-20T13:44:07;1.73;;;1.03;;
703;SDS011;335;48.694;9.120;2023-12-20T13:46:32;2.80;;;1.10;;
703;SDS011;335;48.694;9.120;2023-12-20T13:48:58;2.00;;;0.70;;
703;SDS011;335;48.694;9.120;2023-12-20T13:51:23;1.30;;;0.70;;
703;SDS011;335;48.694;9.120;2023-12-20T13:53:48;1.53;;;0.80;;
703;SDS011;335;48.694;9.120;2023-12-20T13:56:15;1.67;;;1.27;;
703;SDS011;335;48.694;9.120;2023-12-20T13:58:41;5.80;;;1.10;;
703;SDS011;335;48.694;9.120;2023-12-20T14:01:11;1.70;;;0.83;;
703;SDS011;335;48.694;9.120;2023-12-20T14:03:36;4.20;;;1.60;;
703;SDS011;335;48.694;9.120;2023-12-20T14:06:02;1.00;;;0.90;;
703;SDS011;335;48.694;9.120;2023-12-20T14:08:27;4.77;;;1.00;;
703;SDS011;335;48.694;9.120;2023-12-20T14:10:53;2.30;;;1.13;;
703;SDS011;335;48.694;9.120;2023-12-20T14:13:19;0.90;;;0.80;;
703;SDS011;335;48.694;9.120;2023-12-20T14:15:46;3.38;;;0.98;;
703;SDS011;335;48.694;9.120;2023-12-20T14:18:11;1.03;;;1.03;;
703;SDS011;335;48.694;9.120;2023-12-20T14:20:39;3.10;;;1.00;;
703;SDS011;335;48.694;9.120;2023-12-20T14:23:05;1.80;;;0.70;;
703;SDS011;335;48.694;9.120;2023-12-20T14:25:30;2.37;;;1.07;;
703;SDS011;335;48.694;9.120;2023-12-20T14:27:58;1.77;;;0.97;;
703;SDS011;335;48.694;9.120;2023-12-20T14:30:24;1.47;;;0.93;;
703;SDS011;335;48.694;9.120;2023-12-20T14:32:50;2.13;;;1.40;;
703;SDS011;335;48.694;9.120;2023-12-20T14:35:15;2.73;;;0.87;;
703;SDS011;335;48.694;9.120;2023-12-20T14:37:41;2.70;;;0.97;;
703;SDS011;335;48.694;9.120;2023-12-20T14:40:06;3.20;;;1.17;;
703;SDS011;335;48.694;9.120;2023-12-20T14:42:36;2.17;;;1.48;;
703;SDS011;335;48.694;9.120;2023-12-20T14:45:02;1.53;;;1.43;;
703;SDS011;335;48.694;9.120;2023-12-20T14:47:27;1.20;;;1.10;;
703;SDS011;335;48.694;9.120;2023-12-20T14:49:53;7.73;;;0.80;;
703;SDS011;335;48.694;9.120;2023-12-20T14:52:18;3.57;;;1.07;;
703;SDS011;335;48.694;9.120;2023-12-20T14:54:44;0.97;;;0.93;;
703;SDS011;335;48.694;9.120;2023-12-20T14:57:09;3.22;;;1.35;;
703;SDS011;335;48.694;9.120;2023-12-20T14:59:35;1.70;;;1.20;;
703;SDS011;335;48.694;9.120;2023-12-20T15:02:00;2.83;;;1.17;;
703;SDS011;335;48.694;9.120;2023-12-20T15:04:29;0.70;;;0.70;;
703;SDS011;335;48.694;9.120;2023-12-20T15:06:56;3.53;;;1.10;;
703;SDS011;335;48.694;9.120;2023-12-20T15:09:22;3.75;;;1.33;;
703;SDS011;335;48.694;9.120;2023-12-20T15:11:47;3.60;;;1.40;;
703;SDS011;335;48.694;9.120;2023-12-20T15:14:12;2.93;;;1.00;;
703;SDS011;335;48.694;9.120;2023-12-20T15:16:44;1.42;;;0.95;;
703;SDS011;335;48.694;9.120;2023-12-20T15:19:09;1.20;;;1.20;;
703;SDS011;335;48.694;9.120;2023-12-20T15:21:34;1.43;;;1.10;;
703;SDS011;335;48.694;9.120;2023-12-20T15:24:05;2.28;;;1.20;;
703;SDS011;335;48.694;9.120;2023-12-20T15:26:34;4.00;;;1.40;;
703;SDS011;335;48.694;9.120;2023-12-20T15:29:03;1.55;;;1.40;;
703;SDS011;335;48.694;9.120;2023-12-20T15:31:29;1.42;;;1.33;;
703;SDS011;335;48.694;9.120;2023-12-20T15:33:56;7.40;;;1.98;;
703;SDS011;335;48.694;9.120;2023-12-20T15:36:22;4.30;;;1.70;;
703;SDS011;335;48.694;9.120;2023-12-20T15:38:47;2.40;;;1.40;;
703;SDS011;335;48.694;9.120;2023-12-20T15:41:22;2.30;;;1.37;;
703;SDS011;335;48.694;9.120;2023-12-20T15:43:48;1.77;;;1.30;;
703;SDS011;335;48.694;9.120;2023-12-20T15:46:15;1.70;;;1.30;;
703;SDS011;335;48.694;9.120;2023-12-20T15:48:41;3.20;;;2.00;;
703;SDS011;335;48.694;9.120;2023-12-20T15:51:09;2.67;;;1.70;;
703;SDS011;335;48.694;9.120;2023-12-20T15:53:35;1.67;;;1.58;;